createdAt,value
2018-06-22T00:01:07.356Z,0.80
2018-06-22T00:03:35.743Z,0.97
2018-06-22T00:06:04.016Z,0.80
2018-06-22T00:08:32.286Z,1.10
2018-06-22T00:11:00.630Z,0.80
2018-06-22T00:13:29.013Z,0.70
2018-06-22T00:15:57.303Z,1.37
2018-06-22T00:18:25.589Z,1.03
2018-06-22T00:20:54.209Z,1.20
2018-06-22T00:23:22.513Z,0.87
2018-06-22T00:25:50.745Z,0.73
2018-06-22T00:28:19.072Z,0.83
2018-06-22T00:30:47.413Z,0.90
2018-06-22T00:33:15.941Z,0.80
2018-06-22T00:35:44.235Z,1.13
2018-06-22T00:38:12.572Z,1.53
2018-06-22T00:40:40.836Z,0.90
2018-06-22T00:43:09.298Z,1.00
2018-06-22T00:45:37.666Z,1.00
2018-06-22T00:48:06.060Z,1.30
2018-06-22T00:50:34.298Z,0.80
2018-06-22T00:53:02.920Z,0.80
2018-06-22T00:55:31.234Z,1.00
2018-06-22T00:57:59.559Z,1.13
2018-06-22T01:00:27.891Z,0.93
2018-06-22T01:02:56.185Z,1.00
2018-06-22T01:05:24.537Z,0.87
2018-06-22T01:07:53.781Z,1.10
2018-06-22T01:10:22.105Z,1.17
2018-06-22T01:12:50.853Z,0.93
2018-06-22T01:15:19.257Z,1.00
2018-06-22T01:17:47.538Z,1.30
2018-06-22T01:20:15.893Z,1.27
2018-06-22T01:22:44.235Z,0.97
2018-06-22T01:25:12.570Z,1.57
2018-06-22T01:27:40.838Z,1.27
2018-06-22T01:30:09.164Z,0.87
2018-06-22T01:32:37.476Z,0.90
2018-06-22T01:35:05.775Z,1.07
2018-06-22T01:37:34.058Z,1.20
2018-06-22T01:40:02.334Z,1.10
2018-06-22T01:42:30.621Z,0.97
2018-06-22T01:44:59.203Z,1.33
2018-06-22T01:47:27.563Z,0.80
2018-06-22T01:49:55.896Z,1.40
2018-06-22T01:52:24.159Z,1.43
2018-06-22T01:54:52.430Z,1.20
2018-06-22T01:57:20.573Z,0.80
2018-06-22T01:59:48.880Z,1.40
2018-06-22T02:02:17.132Z,1.10
2018-06-22T02:04:45.471Z,1.10
2018-06-22T02:07:13.856Z,0.97
2018-06-22T02:09:42.200Z,1.10
2018-06-22T02:12:10.548Z,0.97
2018-06-22T02:14:40.842Z,1.00
2018-06-22T02:17:09.282Z,0.80
2018-06-22T02:19:37.686Z,1.13
2018-06-22T02:22:05.979Z,1.53
2018-06-22T02:24:34.251Z,0.80
2018-06-22T02:27:02.543Z,0.83
2018-06-22T02:29:30.868Z,1.00
2018-06-22T02:31:59.146Z,1.10
2018-06-22T02:34:27.396Z,1.20
2018-06-22T02:36:55.706Z,0.87
2018-06-22T02:39:24.223Z,1.13
2018-06-22T02:41:52.515Z,1.20
2018-06-22T02:44:20.802Z,1.03
2018-06-22T02:46:49.078Z,1.20
2018-06-22T02:49:17.368Z,0.93
2018-06-22T02:51:45.632Z,0.80
2018-06-22T02:54:13.873Z,0.93
2018-06-22T02:56:42.128Z,1.10
2018-06-22T02:59:10.407Z,1.33
2018-06-22T03:01:38.698Z,1.30
2018-06-22T03:04:06.934Z,1.40
2018-06-22T03:06:35.356Z,1.50
2018-06-22T03:09:05.393Z,0.97
2018-06-22T03:11:33.699Z,0.87
2018-06-22T03:14:01.925Z,1.10
2018-06-22T03:16:30.207Z,1.40
2018-06-22T03:18:58.485Z,1.47
2018-06-22T03:21:26.865Z,1.27
2018-06-22T03:23:55.256Z,1.27
2018-06-22T03:26:23.563Z,1.33
2018-06-22T03:28:51.819Z,1.43
2018-06-22T03:31:20.156Z,1.40
2018-06-22T03:33:48.346Z,1.50
2018-06-22T03:36:16.660Z,1.30
2018-06-22T03:38:44.994Z,1.07
2018-06-22T03:41:13.237Z,1.40
2018-06-22T03:43:41.596Z,1.40
2018-06-22T03:46:09.903Z,1.07
2018-06-22T03:48:38.171Z,1.97
2018-06-22T03:51:06.801Z,1.10
2018-06-22T03:53:35.055Z,1.33
2018-06-22T03:56:03.442Z,1.93
2018-06-22T03:58:31.727Z,2.40
2018-06-22T04:00:59.986Z,2.00
2018-06-22T04:03:31.697Z,1.30
2018-06-22T04:06:02.878Z,1.73
2018-06-22T04:08:31.696Z,2.03
2018-06-22T04:11:00.229Z,2.23
2018-06-22T04:13:28.713Z,1.73
2018-06-22T04:15:57.150Z,2.53
2018-06-22T04:18:25.455Z,1.83
2018-06-22T04:20:53.747Z,1.63
2018-06-22T04:23:22.116Z,2.53
2018-06-22T04:25:50.434Z,1.63
2018-06-22T04:28:18.726Z,1.90
2018-06-22T04:30:47.088Z,1.37
2018-06-22T04:33:15.394Z,2.00
2018-06-22T04:35:43.695Z,1.50
2018-06-22T04:38:12.014Z,1.80
2018-06-22T04:40:40.315Z,1.00
2018-06-22T04:43:08.391Z,1.43
2018-06-22T04:45:36.813Z,1.70
2018-06-22T04:48:05.205Z,1.53
2018-06-22T04:50:33.599Z,1.57
2018-06-22T04:53:02.037Z,1.40
2018-06-22T04:55:30.431Z,1.47
2018-06-22T04:57:58.788Z,2.23
2018-06-22T05:00:27.226Z,2.70
2018-06-22T05:02:55.508Z,1.83
2018-06-22T05:05:23.922Z,2.43
2018-06-22T05:07:52.358Z,1.93
2018-06-22T05:10:20.607Z,1.53
2018-06-22T05:12:48.936Z,1.30
2018-06-22T05:15:17.222Z,1.37
2018-06-22T05:17:45.614Z,1.33
2018-06-22T05:20:13.918Z,1.37
2018-06-22T05:22:42.244Z,1.50
2018-06-22T05:25:10.706Z,1.87
2018-06-22T05:27:39.115Z,1.80
2018-06-22T05:30:07.486Z,1.77
2018-06-22T05:32:35.904Z,1.70
2018-06-22T05:35:04.377Z,1.80
2018-06-22T05:37:32.685Z,1.43
2018-06-22T05:40:01.016Z,1.90
2018-06-22T05:42:29.586Z,1.77
2018-06-22T05:44:57.933Z,2.23
2018-06-22T05:47:26.226Z,2.00
2018-06-22T05:49:54.576Z,1.70
2018-06-22T05:52:22.901Z,1.53
2018-06-22T05:54:51.374Z,1.50
2018-06-22T05:57:19.659Z,1.37
2018-06-22T05:59:47.971Z,1.30
2018-06-22T06:02:16.305Z,2.03
2018-06-22T06:04:44.589Z,1.57
2018-06-22T06:07:12.867Z,1.70
2018-06-22T06:09:41.179Z,1.10
2018-06-22T06:12:09.574Z,1.37
2018-06-22T06:14:37.887Z,1.70
2018-06-22T06:17:06.410Z,1.53
2018-06-22T06:19:34.792Z,1.40
2018-06-22T06:22:03.102Z,1.33
2018-06-22T06:24:31.386Z,1.70
2018-06-22T06:26:59.683Z,1.57
2018-06-22T06:29:28.231Z,1.57
2018-06-22T06:31:56.517Z,1.57
2018-06-22T06:34:24.980Z,1.60
2018-06-22T06:36:53.395Z,1.90
2018-06-22T06:39:21.766Z,2.47
2018-06-22T06:41:50.169Z,1.90
2018-06-22T06:44:18.609Z,1.67
2018-06-22T06:46:46.994Z,2.07
2018-06-22T06:49:15.372Z,2.17
2018-06-22T06:51:43.706Z,1.33
2018-06-22T06:54:12.068Z,1.50
2018-06-22T06:56:40.405Z,1.60
2018-06-22T06:59:08.957Z,1.60
2018-06-22T07:01:38.065Z,1.70
2018-06-22T07:04:06.354Z,1.70
2018-06-22T07:06:34.847Z,1.47
2018-06-22T07:09:03.628Z,1.30
2018-06-22T07:11:32.207Z,1.60
2018-06-22T07:14:00.875Z,1.20
2018-06-22T07:16:29.180Z,1.50
2018-06-22T07:18:57.604Z,1.23
2018-06-22T07:21:25.953Z,1.77
2018-06-22T07:23:54.250Z,1.40
2018-06-22T07:26:22.765Z,1.90
2018-06-22T07:28:51.056Z,1.43
2018-06-22T07:31:19.350Z,1.80
2018-06-22T07:33:47.661Z,1.73
2018-06-22T07:36:15.954Z,1.70
2018-06-22T07:38:44.295Z,1.30
2018-06-22T07:41:12.704Z,1.13
2018-06-22T07:43:40.693Z,2.20
2018-06-22T07:46:08.971Z,1.50
2018-06-22T07:48:37.263Z,1.90
2018-06-22T07:51:05.555Z,1.93
2018-06-22T07:53:33.823Z,1.40
2018-06-22T07:56:02.380Z,1.97
2018-06-22T07:58:30.899Z,1.47
2018-06-22T08:00:59.220Z,1.27
2018-06-22T08:03:27.599Z,1.60
2018-06-22T08:05:55.998Z,1.57
2018-06-22T08:08:24.493Z,1.80
2018-06-22T08:10:52.870Z,1.43
2018-06-22T08:13:21.211Z,1.57
2018-06-22T08:15:49.548Z,1.70
2018-06-22T08:18:18.414Z,1.87
2018-06-22T08:20:46.878Z,1.60
2018-06-22T08:23:15.263Z,1.63
2018-06-22T08:25:43.529Z,1.77
2018-06-22T08:28:12.009Z,1.63
2018-06-22T08:30:40.319Z,1.80
2018-06-22T08:33:08.641Z,1.70
2018-06-22T08:35:37.293Z,1.87
2018-06-22T08:38:06.127Z,1.20
2018-06-22T08:40:34.454Z,1.63
2018-06-22T08:43:03.044Z,1.60
2018-06-22T08:45:31.935Z,1.50
2018-06-22T08:48:00.225Z,1.80
2018-06-22T08:50:28.534Z,1.80
2018-06-22T08:52:56.928Z,1.87
2018-06-22T08:55:25.314Z,1.80
2018-06-22T08:57:53.362Z,1.60
2018-06-22T09:00:21.678Z,1.70
2018-06-22T09:02:49.967Z,2.10
2018-06-22T09:05:18.313Z,1.83
2018-06-22T09:07:46.568Z,1.77
2018-06-22T09:10:14.826Z,2.07
2018-06-22T09:12:43.190Z,2.30
2018-06-22T09:15:11.473Z,1.90
2018-06-22T09:17:39.805Z,2.10
2018-06-22T09:20:08.092Z,2.13
2018-06-22T09:22:36.440Z,1.70
2018-06-22T09:25:04.852Z,2.00
2018-06-22T09:30:14.876Z,1.67
2018-06-22T09:32:43.199Z,1.47
2018-06-22T09:35:11.479Z,1.57
2018-06-22T09:37:39.788Z,1.60
2018-06-22T09:40:08.117Z,1.60
2018-06-22T09:42:39.701Z,2.13
2018-06-22T09:45:08.203Z,1.40
2018-06-22T09:47:36.633Z,1.70
2018-06-22T09:50:05.251Z,1.67
2018-06-22T09:52:33.633Z,1.53
2018-06-22T09:55:01.913Z,2.27
2018-06-22T09:57:30.635Z,2.03
2018-06-22T09:59:58.964Z,2.43
2018-06-22T10:02:27.319Z,1.80
2018-06-22T10:04:55.453Z,1.80
2018-06-22T10:07:23.812Z,1.87
2018-06-22T10:09:52.095Z,2.10
2018-06-22T10:12:20.415Z,1.73
2018-06-22T10:14:48.712Z,1.37
2018-06-22T10:17:16.950Z,1.87
2018-06-22T10:19:45.570Z,1.90
2018-06-22T10:22:13.925Z,1.33
2018-06-22T10:24:42.256Z,1.70
2018-06-22T10:27:11.358Z,1.53
2018-06-22T10:29:39.863Z,2.20
2018-06-22T10:32:08.386Z,1.90
2018-06-22T10:34:36.741Z,2.17
2018-06-22T10:37:05.225Z,1.87
2018-06-22T10:39:33.554Z,1.93
2018-06-22T10:42:01.840Z,1.80
2018-06-22T10:44:30.235Z,1.73
2018-06-22T10:46:58.525Z,1.70
2018-06-22T10:49:26.894Z,1.97
2018-06-22T10:51:55.232Z,1.60
2018-06-22T10:54:23.539Z,1.47
2018-06-22T10:56:51.848Z,1.67
2018-06-22T10:59:20.148Z,2.07
2018-06-22T11:01:48.709Z,1.77
2018-06-22T11:04:17.031Z,1.70
2018-06-22T11:06:45.358Z,1.70
2018-06-22T11:09:15.244Z,2.10
2018-06-22T11:11:43.525Z,1.80
2018-06-22T11:14:12.096Z,1.97
2018-06-22T11:16:40.508Z,1.93
2018-06-22T11:19:08.926Z,1.90
2018-06-22T11:21:37.320Z,1.97
2018-06-22T11:24:05.997Z,1.40
2018-06-22T11:26:34.357Z,2.10
2018-06-22T11:29:04.411Z,1.73
2018-06-22T11:31:32.861Z,1.93
2018-06-22T11:34:01.485Z,1.57
2018-06-22T11:36:29.935Z,2.37
2018-06-22T11:38:58.463Z,1.90
2018-06-22T11:41:27.578Z,2.07
2018-06-22T11:43:57.887Z,1.90
2018-06-22T11:46:27.548Z,1.97
2018-06-22T11:48:55.882Z,1.83
2018-06-22T11:51:24.668Z,1.70
2018-06-22T11:57:38.578Z,1.60
2018-06-22T12:00:08.344Z,1.53
2018-06-22T12:02:43.198Z,1.50
2018-06-22T12:05:11.617Z,1.50
2018-06-22T12:07:39.913Z,1.47
2018-06-22T12:10:08.654Z,1.37
2018-06-22T12:12:37.045Z,1.37
2018-06-22T12:15:06.337Z,1.30
2018-06-22T12:17:34.625Z,1.00
2018-06-22T12:20:03.271Z,1.30
2018-06-22T12:22:31.628Z,1.70
2018-06-22T12:25:00.427Z,1.00
2018-06-22T12:27:28.767Z,1.20
2018-06-22T12:29:58.218Z,1.30
2018-06-22T12:32:30.722Z,1.00
2018-06-22T12:35:00.546Z,1.13
2018-06-22T12:37:34.307Z,1.43
2018-06-22T12:40:02.922Z,1.10
2018-06-22T12:42:31.424Z,1.00
2018-06-22T12:44:59.831Z,2.60
2018-06-22T12:47:28.363Z,1.40
2018-06-22T12:49:57.145Z,1.40
2018-06-22T12:52:25.961Z,1.33
2018-06-22T12:54:57.996Z,1.27
2018-06-22T12:57:26.410Z,1.00
2018-06-22T12:59:54.946Z,1.40
2018-06-22T13:02:23.485Z,0.93
2018-06-22T13:04:52.131Z,1.33
2018-06-22T13:07:20.657Z,1.27
2018-06-22T13:10:00.097Z,1.13
2018-06-22T13:13:01.494Z,1.33
2018-06-22T13:15:34.579Z,1.23
2018-06-22T13:18:04.996Z,0.97
2018-06-22T13:20:35.603Z,1.03
2018-06-22T13:23:03.941Z,1.13
2018-06-22T13:25:32.474Z,0.90
2018-06-22T13:28:01.172Z,1.27
2018-06-22T13:30:30.185Z,0.83
2018-06-22T13:32:58.617Z,1.43
2018-06-22T13:35:27.010Z,1.20
2018-06-22T13:37:55.386Z,1.20
2018-06-22T13:40:23.830Z,1.10
2018-06-22T13:42:52.393Z,1.07
2018-06-22T13:45:20.715Z,1.77
2018-06-22T13:47:49.131Z,0.90
2018-06-22T13:50:17.615Z,0.80
2018-06-22T13:52:46.085Z,1.03
2018-06-22T13:55:14.451Z,1.00
2018-06-22T13:58:08.864Z,1.20
2018-06-22T14:00:38.745Z,0.90
2018-06-22T14:03:21.116Z,1.00
2018-06-22T14:05:54.816Z,3.40
2018-06-22T14:08:23.121Z,0.90
2018-06-22T14:10:51.209Z,0.90
2018-06-22T14:13:19.938Z,0.67
2018-06-22T14:15:48.366Z,1.27
2018-06-22T14:18:21.287Z,1.30
2018-06-22T14:20:49.655Z,0.90
2018-06-22T14:23:17.976Z,0.90
2018-06-22T14:25:46.609Z,0.90
2018-06-22T14:28:15.280Z,0.80
2018-06-22T14:30:43.731Z,0.83
2018-06-22T14:33:12.111Z,0.70
2018-06-22T14:35:40.440Z,0.80
2018-06-22T14:38:08.954Z,1.20
2018-06-22T14:40:37.290Z,0.60
2018-06-22T14:43:06.178Z,1.30
2018-06-22T14:45:34.946Z,1.20
2018-06-22T14:48:03.304Z,1.30
2018-06-22T14:50:31.798Z,1.10
2018-06-22T14:53:00.232Z,0.70
2018-06-22T14:55:34.374Z,0.83
2018-06-22T14:58:08.143Z,1.30
2018-06-22T15:00:41.950Z,1.17
2018-06-22T15:03:16.102Z,0.90
2018-06-22T15:05:50.065Z,1.03
2018-06-22T15:08:22.655Z,1.00
2018-06-22T15:10:51.056Z,1.30
2018-06-22T15:13:19.415Z,1.10
2018-06-22T15:15:47.954Z,1.47
2018-06-22T15:18:16.308Z,0.80
2018-06-22T15:20:49.653Z,1.03
2018-06-22T15:23:18.328Z,1.40
2018-06-22T15:25:46.694Z,1.20
2018-06-22T15:28:15.076Z,0.83
2018-06-22T15:30:43.434Z,0.80
2018-06-22T15:33:17.042Z,1.13
2018-06-22T15:35:50.779Z,0.70
2018-06-22T15:38:24.498Z,1.07
2018-06-22T15:40:58.481Z,0.80
2018-06-22T15:43:33.118Z,0.70
2018-06-22T15:46:14.853Z,0.90
2018-06-22T15:48:49.040Z,0.90
2018-06-22T15:51:22.792Z,0.90
2018-06-22T15:53:56.872Z,0.77
2018-06-22T15:56:25.956Z,0.60
2018-06-22T15:58:54.633Z,0.77
2018-06-22T16:01:23.145Z,0.73
2018-06-22T16:03:56.719Z,0.80
2018-06-22T16:06:36.747Z,0.60
2018-06-22T16:09:10.293Z,0.60
2018-06-22T16:11:38.641Z,0.80
2018-06-22T16:14:12.771Z,1.03
2018-06-22T16:16:46.503Z,1.13
2018-06-22T16:19:20.285Z,0.70
2018-06-22T16:21:54.252Z,1.07
2018-06-22T16:24:27.989Z,1.10
2018-06-22T16:27:01.763Z,0.80
2018-06-22T16:29:30.189Z,1.40
2018-06-22T16:31:58.490Z,1.37
2018-06-22T16:34:26.885Z,0.83
2018-06-22T16:36:55.319Z,1.53
2018-06-22T16:39:23.692Z,0.70
2018-06-22T16:41:51.996Z,0.83
2018-06-22T16:44:20.389Z,0.80
2018-06-22T16:46:49.105Z,1.10
2018-06-22T16:49:17.257Z,1.17
2018-06-22T16:51:45.739Z,0.97
2018-06-22T16:54:14.238Z,0.83
2018-06-22T16:56:42.799Z,0.80
2018-06-22T16:59:11.283Z,0.80
2018-06-22T17:01:39.382Z,0.90
2018-06-22T17:04:07.914Z,0.63
2018-06-22T17:06:41.385Z,0.50
2018-06-22T17:09:15.121Z,1.50
2018-06-22T17:11:48.718Z,1.00
2018-06-22T17:14:22.656Z,0.93
2018-06-22T17:16:56.809Z,0.70
2018-06-22T17:19:25.168Z,0.80
2018-06-22T17:21:53.620Z,1.13
2018-06-22T17:24:22.190Z,1.00
2018-06-22T17:26:50.739Z,0.93
2018-06-22T17:29:19.158Z,0.77
2018-06-22T17:31:47.457Z,0.83
2018-06-22T17:34:15.743Z,1.00
2018-06-22T17:36:44.392Z,1.00
2018-06-22T17:39:12.731Z,1.03
2018-06-22T17:41:41.182Z,0.73
2018-06-22T17:44:09.676Z,0.77
2018-06-22T17:46:38.304Z,0.87
2018-06-22T17:49:06.651Z,1.33
2018-06-22T17:51:35.359Z,1.50
2018-06-22T17:54:03.913Z,0.77
2018-06-22T17:56:33.038Z,0.80
2018-06-22T17:59:07.277Z,0.77
2018-06-22T18:01:41.081Z,0.70
2018-06-22T18:04:15.034Z,0.80
2018-06-22T18:06:48.774Z,0.87
2018-06-22T18:09:22.663Z,0.70
2018-06-22T18:11:56.437Z,0.60
2018-06-22T18:14:25.178Z,0.70
2018-06-22T18:16:55.598Z,1.20
2018-06-22T18:19:23.990Z,0.63
2018-06-22T18:21:52.584Z,0.90
2018-06-22T18:24:21.705Z,1.00
2018-06-22T18:26:50.642Z,1.00
2018-06-22T18:29:18.974Z,0.67
2018-06-22T18:31:47.298Z,1.00
2018-06-22T18:34:15.405Z,0.50
2018-06-22T18:36:43.936Z,0.90
2018-06-22T18:39:13.749Z,1.43
2018-06-22T18:41:42.123Z,1.30
2018-06-22T18:44:14.907Z,0.97
2018-06-22T18:46:43.218Z,1.53
2018-06-22T18:49:11.611Z,1.70
2018-06-22T18:51:40.130Z,1.20
2018-06-22T18:54:13.961Z,1.47
2018-06-22T18:56:47.844Z,2.20
2018-06-22T18:59:21.812Z,3.60
2018-06-22T19:01:55.590Z,1.13
2018-06-22T19:04:24.040Z,1.07
2018-06-22T19:06:52.342Z,0.93
2018-06-22T19:09:20.746Z,1.60
2018-06-22T19:11:49.330Z,1.00
2018-06-22T19:14:18.046Z,0.90
2018-06-22T19:16:46.459Z,0.93
2018-06-22T19:19:15.288Z,1.07
2018-06-22T19:21:43.906Z,0.80
2018-06-22T19:24:12.340Z,0.80
2018-06-22T19:26:40.732Z,0.90
2018-06-22T19:29:09.433Z,0.97
2018-06-22T19:31:37.941Z,1.17
2018-06-22T19:34:06.449Z,1.03
2018-06-22T19:36:34.996Z,1.00
2018-06-22T19:39:06.257Z,1.17
2018-06-22T19:41:35.561Z,1.23
2018-06-22T19:44:09.570Z,0.90
2018-06-22T19:46:43.471Z,1.13
2018-06-22T19:49:19.129Z,1.30
2018-06-22T19:51:52.874Z,0.83
2018-06-22T19:54:21.610Z,1.17
2018-06-22T19:56:50.014Z,1.27
2018-06-22T19:59:18.370Z,1.10
2018-06-22T20:01:46.738Z,1.20
2018-06-22T20:04:16.131Z,1.70
2018-06-22T20:06:44.595Z,2.90
2018-06-22T20:09:13.353Z,1.43
2018-06-22T20:11:41.796Z,1.57
2018-06-22T20:14:10.904Z,1.17
2018-06-22T20:16:40.554Z,1.13
2018-06-22T20:19:09.728Z,1.27
2018-06-22T20:21:38.583Z,1.57
2018-06-22T20:24:07.581Z,1.10
2018-06-22T20:26:36.138Z,1.50
2018-06-22T20:29:04.502Z,1.20
2018-06-22T20:31:39.859Z,1.30
2018-06-22T20:34:14.818Z,1.30
2018-06-22T20:36:48.574Z,1.23
2018-06-22T20:39:22.575Z,1.23
2018-06-22T20:41:57.693Z,1.50
2018-06-22T20:44:32.385Z,1.63
2018-06-22T20:47:06.843Z,1.83
2018-06-22T20:49:40.542Z,1.70
2018-06-22T20:52:09.232Z,1.70
2018-06-22T20:54:37.563Z,1.83
2018-06-22T20:57:05.920Z,1.63
2018-06-22T20:59:34.401Z,1.10
2018-06-22T21:02:02.683Z,1.60
2018-06-22T21:04:31.057Z,3.53
2018-06-22T21:06:59.442Z,3.53
2018-06-22T21:09:28.039Z,2.40
2018-06-22T21:11:56.455Z,1.40
2018-06-22T21:14:24.946Z,1.67
2018-06-22T21:16:53.497Z,1.90
2018-06-22T21:19:21.832Z,2.03
2018-06-22T21:21:56.001Z,1.80
2018-06-22T21:24:25.153Z,1.97
2018-06-22T21:26:54.549Z,3.00
2018-06-22T21:29:28.530Z,2.20
2018-06-22T21:32:02.743Z,2.27
2018-06-22T21:34:36.549Z,2.70
2018-06-22T21:37:10.522Z,2.47
2018-06-22T21:39:38.801Z,2.20
2018-06-22T21:42:07.106Z,2.17
2018-06-22T21:44:35.620Z,2.40
2018-06-22T21:47:04.439Z,2.27
2018-06-22T21:49:32.872Z,1.90
2018-06-22T21:52:01.214Z,1.93
2018-06-22T21:54:29.547Z,1.80
2018-06-22T21:56:57.916Z,2.13
2018-06-22T21:59:26.337Z,1.90
2018-06-22T22:01:55.689Z,2.17
2018-06-22T22:04:24.136Z,2.80
2018-06-22T22:06:52.443Z,2.40
2018-06-22T22:09:22.658Z,2.23
2018-06-22T22:11:57.055Z,2.03
2018-06-22T22:14:26.237Z,1.70
2018-06-22T22:16:54.813Z,1.83
2018-06-22T22:19:23.429Z,1.70
2018-06-22T22:21:51.745Z,2.00
2018-06-22T22:24:20.000Z,1.73
2018-06-22T22:26:48.271Z,1.60
2018-06-22T22:29:16.935Z,2.20
2018-06-22T22:31:48.375Z,1.90
2018-06-22T22:34:16.941Z,2.23
2018-06-22T22:36:45.695Z,2.90
2018-06-22T22:39:14.033Z,2.33
2018-06-22T22:41:42.622Z,2.80
2018-06-22T22:44:11.106Z,2.87
2018-06-22T22:46:39.894Z,3.23
2018-06-22T22:49:08.408Z,3.00
2018-06-22T22:51:43.343Z,3.03
2018-06-22T22:54:11.861Z,3.23
2018-06-22T22:56:40.671Z,2.93
2018-06-22T22:59:15.906Z,3.10
2018-06-22T23:01:44.222Z,3.57
2018-06-22T23:04:12.605Z,3.10
2018-06-22T23:06:40.938Z,3.37
2018-06-22T23:09:10.138Z,3.30
2018-06-22T23:11:38.851Z,2.40
2018-06-22T23:14:10.376Z,2.70
2018-06-22T23:16:39.653Z,2.57
2018-06-22T23:19:11.327Z,2.53
2018-06-22T23:21:39.470Z,3.53
2018-06-22T23:24:09.433Z,3.03
2018-06-22T23:26:38.390Z,2.77
2018-06-22T23:29:06.865Z,3.43
2018-06-22T23:31:35.098Z,2.70
2018-06-22T23:34:03.469Z,2.80
2018-06-22T23:36:32.894Z,3.17
2018-06-22T23:39:03.185Z,2.27
2018-06-22T23:41:31.866Z,2.30
2018-06-22T23:44:00.138Z,2.20
2018-06-22T23:46:28.394Z,2.03
2018-06-22T23:49:03.145Z,2.57
2018-06-22T23:51:31.813Z,1.90
2018-06-22T23:54:10.675Z,2.17
2018-06-22T23:56:39.324Z,2.10
2018-06-22T23:59:08.645Z,2.00
